createdAt,value
2022-10-13T00:01:24.823Z,8.50
2022-10-13T00:03:53.535Z,7.55
2022-10-13T00:06:23.807Z,8.70
2022-10-13T00:08:52.660Z,8.85
2022-10-13T00:11:23.104Z,8.23
2022-10-13T00:13:53.675Z,8.40
2022-10-13T00:16:23.574Z,8.55
2022-10-13T00:18:52.281Z,8.10
2022-10-13T00:21:24.310Z,9.02
2022-10-13T00:23:54.219Z,8.80
2022-10-13T00:26:25.261Z,8.35
2022-10-13T00:28:55.667Z,8.48
2022-10-13T00:31:26.443Z,8.77
2022-10-13T00:33:54.961Z,9.05
2022-10-13T00:36:24.304Z,9.00
2022-10-13T00:38:53.389Z,9.32
2022-10-13T00:41:22.460Z,8.73
2022-10-13T00:43:58.114Z,9.85
2022-10-13T00:46:29.358Z,9.50
2022-10-13T00:49:02.145Z,9.32
2022-10-13T00:51:36.310Z,9.32
2022-10-13T00:54:06.819Z,9.35
2022-10-13T00:56:37.658Z,9.63
2022-10-13T00:59:14.741Z,9.73
2022-10-13T01:01:42.931Z,8.63
2022-10-13T01:04:12.000Z,9.35
2022-10-13T01:06:41.496Z,8.73
2022-10-13T01:09:09.986Z,11.25
2022-10-13T01:11:59.302Z,9.90
2022-10-13T01:14:36.957Z,9.82
2022-10-13T01:17:15.031Z,9.95
2022-10-13T01:20:28.529Z,10.07
2022-10-13T01:23:18.085Z,9.35
2022-10-13T01:26:18.629Z,9.25
2022-10-13T01:29:10.555Z,8.43
2022-10-13T01:31:48.296Z,9.23
2022-10-13T01:34:22.844Z,8.98
2022-10-13T01:37:02.164Z,9.15
2022-10-13T01:39:43.052Z,8.52
2022-10-13T01:42:19.300Z,9.00
2022-10-13T01:44:52.096Z,10.25
2022-10-13T01:47:23.638Z,9.23
2022-10-13T01:49:54.446Z,9.38
2022-10-13T01:52:27.348Z,9.68
2022-10-13T01:54:55.857Z,9.63
2022-10-13T01:57:32.895Z,9.73
2022-10-13T02:00:04.959Z,8.75
2022-10-13T02:02:52.485Z,8.23
2022-10-13T02:05:35.463Z,9.25
2022-10-13T02:08:08.765Z,10.10
2022-10-13T02:10:45.654Z,9.43
2022-10-13T02:13:18.001Z,10.75
2022-10-13T02:15:50.437Z,10.73
2022-10-13T02:18:23.317Z,10.55
2022-10-13T02:20:52.886Z,10.43
2022-10-13T02:23:21.297Z,11.15
2022-10-13T02:25:51.130Z,10.85
2022-10-13T02:28:20.167Z,10.82
2022-10-13T02:30:49.870Z,10.43
2022-10-13T02:33:20.058Z,9.68
2022-10-13T02:35:48.620Z,11.38
2022-10-13T02:38:16.820Z,10.43
2022-10-13T02:40:45.197Z,11.52
2022-10-13T02:43:13.410Z,11.13
2022-10-13T02:45:41.582Z,11.45
2022-10-13T02:48:09.783Z,11.02
2022-10-13T02:50:39.465Z,10.45
2022-10-13T02:53:08.082Z,11.43
2022-10-13T02:55:36.518Z,11.55
2022-10-13T02:58:05.026Z,11.50
2022-10-13T03:00:33.319Z,11.52
2022-10-13T03:03:01.651Z,11.80
2022-10-13T03:05:29.967Z,12.10
2022-10-13T03:07:59.448Z,12.93
2022-10-13T03:10:28.046Z,12.25
2022-10-13T03:12:56.572Z,13.60
2022-10-13T03:15:24.726Z,13.60
2022-10-13T03:17:55.915Z,14.07
2022-10-13T03:20:24.415Z,13.63
2022-10-13T03:22:52.755Z,13.00
2022-10-13T03:25:22.868Z,13.52
2022-10-13T03:27:53.553Z,13.25
2022-10-13T03:30:21.763Z,12.55
2022-10-13T03:32:50.274Z,13.27
2022-10-13T03:35:18.848Z,12.45
2022-10-13T03:37:47.057Z,12.02
2022-10-13T03:40:15.230Z,11.75
2022-10-13T03:42:44.732Z,13.43
2022-10-13T03:45:13.529Z,12.75
2022-10-13T03:47:41.731Z,12.80
2022-10-13T03:50:11.114Z,13.73
2022-10-13T03:52:39.431Z,12.57
2022-10-13T03:55:08.370Z,13.50
2022-10-13T03:57:36.539Z,12.02
2022-10-13T04:00:10.598Z,11.57
2022-10-13T04:02:40.730Z,12.00
2022-10-13T04:05:09.901Z,12.45
2022-10-13T04:07:38.093Z,13.57
2022-10-13T04:10:19.586Z,13.00
2022-10-13T04:12:50.907Z,13.48
2022-10-13T04:15:20.447Z,12.95
2022-10-13T04:17:48.991Z,12.18
2022-10-13T04:20:17.296Z,12.57
2022-10-13T04:22:45.591Z,13.35
2022-10-13T04:25:13.788Z,14.23
2022-10-13T04:27:42.066Z,14.18
2022-10-13T04:30:13.687Z,14.30
2022-10-13T04:32:43.534Z,14.98
2022-10-13T04:35:12.872Z,13.70
2022-10-13T04:37:44.923Z,13.52
2022-10-13T04:40:15.332Z,13.80
2022-10-13T04:42:43.819Z,14.18
2022-10-13T04:45:12.520Z,14.70
2022-10-13T04:47:44.538Z,12.73
2022-10-13T04:50:12.669Z,12.27
2022-10-13T04:52:41.134Z,14.57
2022-10-13T04:55:10.284Z,13.55
2022-10-13T04:57:38.609Z,13.20
2022-10-13T05:00:08.969Z,13.88
2022-10-13T05:02:37.380Z,14.02
2022-10-13T05:05:08.838Z,14.98
2022-10-13T05:07:37.364Z,15.75
2022-10-13T05:10:06.687Z,14.30
2022-10-13T05:12:35.069Z,15.35
2022-10-13T05:15:03.634Z,14.40
2022-10-13T05:17:35.210Z,15.27
2022-10-13T05:20:12.251Z,14.93
2022-10-13T05:22:40.421Z,15.23
2022-10-13T05:25:09.211Z,14.70
2022-10-13T05:27:37.493Z,14.63
2022-10-13T05:30:10.057Z,15.05
2022-10-13T05:32:38.293Z,14.35
2022-10-13T05:35:07.588Z,15.35
2022-10-13T05:37:39.587Z,15.57
2022-10-13T05:40:09.453Z,15.00
2022-10-13T05:42:38.977Z,14.02
2022-10-13T05:45:11.573Z,16.63
2022-10-13T05:47:39.862Z,14.45
2022-10-13T05:50:10.821Z,14.82
2022-10-13T05:52:44.910Z,14.13
2022-10-13T05:55:15.914Z,14.52
2022-10-13T05:57:48.829Z,15.00
2022-10-13T06:00:20.243Z,14.85
2022-10-13T06:02:55.857Z,15.00
2022-10-13T06:05:27.334Z,14.98
2022-10-13T06:07:58.723Z,14.90
2022-10-13T06:10:27.337Z,14.80
2022-10-13T06:12:55.859Z,15.30
2022-10-13T06:15:27.983Z,14.75
2022-10-13T06:17:57.782Z,15.15
2022-10-13T06:20:27.568Z,14.65
2022-10-13T06:22:56.314Z,14.45
2022-10-13T06:25:25.774Z,14.23
2022-10-13T06:27:54.006Z,15.10
2022-10-13T06:30:22.204Z,14.07
2022-10-13T06:32:50.408Z,15.00
2022-10-13T06:35:18.824Z,14.27
2022-10-13T06:37:48.614Z,15.35
2022-10-13T06:40:17.416Z,15.88
2022-10-13T06:42:52.307Z,13.27
2022-10-13T06:45:23.847Z,14.40
2022-10-13T06:47:54.782Z,13.35
2022-10-13T06:50:24.112Z,14.43
2022-10-13T06:52:53.260Z,13.38
2022-10-13T06:55:21.396Z,14.00
2022-10-13T06:57:51.234Z,12.80
2022-10-13T07:00:19.889Z,14.45
2022-10-13T07:02:52.444Z,13.88
2022-10-13T07:05:20.910Z,13.65
2022-10-13T07:07:49.088Z,12.73
2022-10-13T07:10:17.823Z,13.30
2022-10-13T07:12:46.783Z,13.35
2022-10-13T07:15:16.694Z,14.20
2022-10-13T07:17:44.867Z,14.38
2022-10-13T07:20:13.383Z,14.35
2022-10-13T07:22:41.694Z,14.15
2022-10-13T07:25:10.932Z,13.95
2022-10-13T07:27:40.758Z,13.35
2022-10-13T07:30:09.960Z,14.55
2022-10-13T07:32:41.935Z,14.00
2022-10-13T07:35:11.512Z,15.68
2022-10-13T07:37:40.616Z,12.43
2022-10-13T07:40:10.528Z,23.42
2022-10-13T07:42:38.750Z,15.38
2022-10-13T07:45:08.929Z,14.55
2022-10-13T07:47:38.851Z,16.45
2022-10-13T07:50:07.732Z,14.70
2022-10-13T07:52:36.960Z,13.98
2022-10-13T07:55:06.479Z,14.27
2022-10-13T07:57:34.973Z,15.43
2022-10-13T08:00:03.606Z,13.63
2022-10-13T08:02:41.810Z,14.10
2022-10-13T08:05:10.450Z,14.77
2022-10-13T08:07:39.478Z,15.25
2022-10-13T08:10:09.619Z,14.65
2022-10-13T08:12:38.015Z,15.10
2022-10-13T08:15:09.105Z,14.25
2022-10-13T08:17:37.606Z,12.90
2022-10-13T08:20:08.852Z,13.93
2022-10-13T08:22:36.990Z,13.18
2022-10-13T08:25:07.190Z,12.38
2022-10-13T08:27:50.770Z,12.55
2022-10-13T08:30:20.678Z,11.55
2022-10-13T08:32:49.651Z,12.38
2022-10-13T08:35:19.886Z,10.50
2022-10-13T08:37:49.303Z,10.52
2022-10-13T08:40:22.988Z,10.95
2022-10-13T08:42:51.305Z,10.27
2022-10-13T08:45:41.797Z,9.27
2022-10-13T08:48:16.923Z,7.22
2022-10-13T08:50:50.636Z,8.02
2022-10-13T08:53:28.567Z,7.57
2022-10-13T08:56:01.541Z,7.93
2022-10-13T08:58:33.610Z,7.82
2022-10-13T09:01:13.238Z,7.63
2022-10-13T09:03:51.869Z,7.22
2022-10-13T09:06:28.450Z,7.60
2022-10-13T09:08:59.881Z,7.18
2022-10-13T09:11:29.946Z,6.97
2022-10-13T09:14:00.990Z,7.70
2022-10-13T09:16:34.401Z,7.70
2022-10-13T09:19:24.286Z,7.32
2022-10-13T09:21:55.860Z,7.07
2022-10-13T09:24:27.000Z,7.63
2022-10-13T09:27:08.055Z,6.97
2022-10-13T09:29:41.468Z,7.53
2022-10-13T09:32:21.267Z,7.10
2022-10-13T09:34:51.776Z,7.15
2022-10-13T09:37:24.553Z,7.93
2022-10-13T09:40:13.398Z,4.75
2022-10-13T09:42:42.042Z,7.00
2022-10-13T09:45:17.233Z,7.65
2022-10-13T09:47:52.978Z,6.85
2022-10-13T09:50:25.528Z,6.07
2022-10-13T09:53:18.632Z,7.28
2022-10-13T09:55:49.523Z,7.53
2022-10-13T09:58:27.443Z,6.45
2022-10-13T10:00:56.770Z,6.90
2022-10-13T10:03:30.649Z,6.78
2022-10-13T10:06:02.256Z,6.90
2022-10-13T10:09:01.468Z,6.53
2022-10-13T10:11:34.829Z,6.55
2022-10-13T10:14:16.794Z,7.35
2022-10-13T10:16:53.636Z,5.82
2022-10-13T10:19:28.333Z,7.18
2022-10-13T10:22:04.167Z,6.90
2022-10-13T10:24:47.361Z,6.47
2022-10-13T10:30:00.403Z,5.97
2022-10-13T10:32:44.002Z,6.35
2022-10-13T10:35:20.909Z,5.22
2022-10-13T10:38:20.137Z,5.03
2022-10-13T10:40:57.770Z,5.18
2022-10-13T10:43:46.825Z,5.97
2022-10-13T10:46:23.398Z,7.10
2022-10-13T10:48:59.570Z,5.60
2022-10-13T10:51:34.260Z,5.88
2022-10-13T10:54:21.469Z,5.75
2022-10-13T10:56:57.281Z,6.20
2022-10-13T10:59:41.969Z,5.72
2022-10-13T11:02:31.658Z,5.38
2022-10-13T11:05:05.348Z,9.68
2022-10-13T11:08:01.338Z,9.07
2022-10-13T11:10:30.558Z,8.50
2022-10-13T11:13:19.279Z,6.20
2022-10-13T11:15:48.051Z,6.82
2022-10-13T11:18:58.956Z,5.45
2022-10-13T11:22:17.259Z,5.47
2022-10-13T11:24:55.943Z,5.80
2022-10-13T11:27:44.231Z,4.80
2022-10-13T11:30:50.333Z,4.43
2022-10-13T11:33:56.005Z,4.68
2022-10-13T11:36:57.630Z,5.15
2022-10-13T11:40:15.139Z,5.35
2022-10-13T11:43:29.794Z,4.80
2022-10-13T11:46:29.944Z,4.18
2022-10-13T11:49:55.880Z,6.05
2022-10-13T11:52:57.392Z,5.10
2022-10-13T11:55:43.089Z,4.43
2022-10-13T11:58:16.827Z,4.28
2022-10-13T12:01:00.788Z,4.70
2022-10-13T12:03:32.733Z,4.60
2022-10-13T12:06:05.466Z,4.47
2022-10-13T12:08:37.292Z,4.30
2022-10-13T12:13:37.532Z,4.40
2022-10-13T12:16:07.942Z,4.28
2022-10-13T12:18:40.965Z,4.50
2022-10-13T12:21:13.751Z,4.60
2022-10-13T12:23:42.506Z,5.10
2022-10-13T12:26:16.961Z,4.45
2022-10-13T12:28:51.994Z,4.30
2022-10-13T12:31:23.449Z,4.80
2022-10-13T12:33:58.230Z,4.00
2022-10-13T12:36:31.111Z,3.70
2022-10-13T12:39:06.875Z,3.60
2022-10-13T12:41:37.736Z,3.67
2022-10-13T12:44:07.190Z,3.92
2022-10-13T12:46:40.474Z,4.10
2022-10-13T12:49:16.441Z,4.20
2022-10-13T12:51:47.581Z,4.80
2022-10-13T12:54:26.405Z,3.60
2022-10-13T12:57:00.678Z,3.67
2022-10-13T12:59:31.856Z,4.13
2022-10-13T13:02:03.575Z,3.55
2022-10-13T13:07:32.036Z,3.60
2022-10-13T13:10:17.744Z,3.80
2022-10-13T13:12:47.478Z,4.72
2022-10-13T13:15:32.071Z,3.58
2022-10-13T13:18:41.734Z,3.85
2022-10-13T13:21:14.635Z,3.92
2022-10-13T13:23:43.797Z,4.32
2022-10-13T13:26:15.674Z,4.40
2022-10-13T13:28:47.908Z,3.20
2022-10-13T13:31:17.788Z,3.80
2022-10-13T13:33:45.989Z,3.42
2022-10-13T13:36:19.802Z,3.50
2022-10-13T13:38:49.079Z,3.42
2022-10-13T13:41:18.207Z,3.50
2022-10-13T13:43:46.923Z,3.35
2022-10-13T13:46:18.869Z,3.78
2022-10-13T13:48:47.267Z,3.05
2022-10-13T13:51:17.338Z,3.70
2022-10-13T13:53:47.294Z,2.92
2022-10-13T13:56:19.881Z,3.47
2022-10-13T13:58:48.758Z,3.50
2022-10-13T14:01:17.496Z,4.20
2022-10-13T14:03:45.736Z,3.88
2022-10-13T14:06:22.872Z,3.67
2022-10-13T14:08:51.488Z,3.90
2022-10-13T14:11:20.378Z,4.28
2022-10-13T14:13:48.963Z,3.90
2022-10-13T14:16:25.840Z,3.90
2022-10-13T14:18:55.661Z,4.03
2022-10-13T14:21:27.377Z,3.70
2022-10-13T14:23:58.283Z,4.00
2022-10-13T14:26:26.493Z,3.45
2022-10-13T14:28:55.123Z,3.38
2022-10-13T14:31:23.359Z,3.70
2022-10-13T14:33:54.313Z,3.50
2022-10-13T14:36:26.650Z,3.70
2022-10-13T14:38:55.271Z,3.67
2022-10-13T14:41:26.159Z,3.88
2022-10-13T14:43:55.216Z,4.28
2022-10-13T14:46:24.759Z,3.58
2022-10-13T14:48:53.025Z,4.10
2022-10-13T14:51:21.441Z,4.10
2022-10-13T14:53:51.357Z,4.20
2022-10-13T14:56:22.673Z,3.70
2022-10-13T14:58:57.063Z,4.32
2022-10-13T15:01:28.804Z,4.03
2022-10-13T15:03:57.705Z,3.58
2022-10-13T15:06:27.023Z,4.03
2022-10-13T15:08:57.013Z,3.63
2022-10-13T15:11:26.797Z,4.18
2022-10-13T15:13:56.216Z,3.92
2022-10-13T15:16:28.568Z,4.25
2022-10-13T15:18:57.493Z,4.18
2022-10-13T15:21:26.517Z,3.72
2022-10-13T15:23:56.572Z,4.45
2022-10-13T15:26:25.120Z,3.92
2022-10-13T15:28:54.150Z,4.90
2022-10-13T15:31:24.427Z,3.95
2022-10-13T15:33:54.603Z,4.38
2022-10-13T15:36:25.362Z,4.53
2022-10-13T15:38:54.067Z,4.90
2022-10-13T15:41:25.488Z,5.35
2022-10-13T15:43:54.106Z,4.30
2022-10-13T15:46:24.031Z,4.57
2022-10-13T15:48:55.213Z,4.85
2022-10-13T15:51:28.259Z,4.20
2022-10-13T15:53:56.810Z,5.47
2022-10-13T15:56:26.717Z,5.60
2022-10-13T15:58:55.282Z,4.57
2022-10-13T16:01:23.694Z,4.85
2022-10-13T16:03:55.069Z,7.05
2022-10-13T16:06:24.843Z,7.93
2022-10-13T16:08:53.677Z,8.18
2022-10-13T16:11:24.028Z,7.13
2022-10-13T16:13:53.925Z,7.40
2022-10-13T16:16:22.271Z,8.48
2022-10-13T16:18:51.849Z,9.13
2022-10-13T16:21:24.089Z,9.30
2022-10-13T16:23:52.983Z,8.52
2022-10-13T16:26:21.699Z,9.23
2022-10-13T16:28:49.940Z,10.05
2022-10-13T16:31:19.581Z,9.40
2022-10-13T16:33:48.314Z,10.15
2022-10-13T16:36:18.823Z,10.82
2022-10-13T16:38:49.268Z,10.63
2022-10-13T16:41:19.746Z,10.82
2022-10-13T16:43:49.031Z,12.07
2022-10-13T16:46:21.426Z,11.00
2022-10-13T16:48:49.815Z,10.95
2022-10-13T16:51:20.719Z,12.20
2022-10-13T16:53:50.387Z,12.65
2022-10-13T16:56:22.130Z,13.82
2022-10-13T16:58:50.858Z,14.40
2022-10-13T17:01:21.606Z,30.85
2022-10-13T17:03:51.212Z,15.60
2022-10-13T17:06:22.407Z,15.30
2022-10-13T17:08:56.345Z,14.20
2022-10-13T17:11:28.940Z,15.40
2022-10-13T17:13:59.503Z,22.05
2022-10-13T17:16:34.246Z,15.90
2022-10-13T17:19:02.685Z,15.43
2022-10-13T17:21:40.586Z,17.15
2022-10-13T17:24:11.066Z,16.15
2022-10-13T17:26:39.897Z,16.15
2022-10-13T17:29:08.277Z,15.80
2022-10-13T17:31:37.799Z,17.77
2022-10-13T17:34:06.268Z,16.17
2022-10-13T17:36:34.705Z,16.15
2022-10-13T17:39:10.939Z,17.92
2022-10-13T17:41:42.393Z,19.38
2022-10-13T17:44:11.618Z,16.98
2022-10-13T17:46:41.498Z,20.45
2022-10-13T17:49:13.368Z,20.15
2022-10-13T17:51:43.995Z,20.00
2022-10-13T17:54:16.307Z,18.25
2022-10-13T17:56:45.561Z,17.63
2022-10-13T17:59:14.176Z,17.23
2022-10-13T18:01:43.962Z,20.38
2022-10-13T18:04:15.304Z,18.50
2022-10-13T18:06:45.126Z,17.98
2022-10-13T18:09:17.954Z,19.25
2022-10-13T18:11:50.730Z,19.88
2022-10-13T18:14:20.333Z,18.52
2022-10-13T18:16:51.931Z,18.35
2022-10-13T18:19:21.315Z,18.73
2022-10-13T18:21:50.099Z,17.70
2022-10-13T18:24:18.918Z,17.60
2022-10-13T18:26:47.887Z,21.45
2022-10-13T18:29:16.131Z,20.75
2022-10-13T18:31:44.788Z,20.73
2022-10-13T18:34:16.953Z,19.38
2022-10-13T18:36:48.698Z,19.63
2022-10-13T18:39:19.459Z,19.42
2022-10-13T18:41:50.554Z,19.55
2022-10-13T18:44:20.107Z,17.90
2022-10-13T18:46:51.509Z,18.13
2022-10-13T18:49:23.817Z,17.13
2022-10-13T18:51:52.704Z,20.95
2022-10-13T18:54:21.193Z,19.65
2022-10-13T18:56:49.855Z,20.88
2022-10-13T18:59:18.488Z,19.90
2022-10-13T19:01:47.484Z,18.83
2022-10-13T19:04:17.051Z,19.73
2022-10-13T19:06:46.742Z,17.55
2022-10-13T19:09:17.440Z,21.15
2022-10-13T19:11:45.750Z,21.88
2022-10-13T19:14:17.527Z,21.13
2022-10-13T19:16:45.869Z,20.65
2022-10-13T19:19:14.625Z,20.58
2022-10-13T19:21:42.963Z,19.20
2022-10-13T19:24:13.862Z,18.52
2022-10-13T19:26:42.222Z,19.20
2022-10-13T19:29:14.033Z,20.17
2022-10-13T19:31:43.906Z,19.95
2022-10-13T19:34:13.474Z,21.50
2022-10-13T19:36:44.246Z,20.00
2022-10-13T19:39:19.464Z,20.08
2022-10-13T19:41:49.259Z,19.83
2022-10-13T19:44:19.197Z,21.20
2022-10-13T19:46:48.824Z,19.50
2022-10-13T19:49:20.028Z,20.05
2022-10-13T19:51:50.124Z,20.17
2022-10-13T19:54:21.765Z,20.63
2022-10-13T19:56:51.364Z,22.35
2022-10-13T19:59:20.940Z,20.35
2022-10-13T20:01:49.758Z,20.48
2022-10-13T20:04:20.569Z,22.05
2022-10-13T20:06:50.323Z,24.65
2022-10-13T20:09:20.786Z,20.25
2022-10-13T20:11:51.558Z,20.50
2022-10-13T20:14:20.518Z,18.77
2022-10-13T20:16:49.488Z,20.67
2022-10-13T20:19:19.543Z,20.23
2022-10-13T20:21:51.656Z,20.23
2022-10-13T20:24:23.411Z,20.60
2022-10-13T20:26:52.197Z,19.45
2022-10-13T20:29:23.531Z,19.10
2022-10-13T20:31:52.080Z,20.25
2022-10-13T20:34:20.271Z,18.70
2022-10-13T20:36:51.952Z,18.73
2022-10-13T20:41:49.884Z,18.15
2022-10-13T20:44:18.675Z,17.98
2022-10-13T20:46:46.948Z,19.75
2022-10-13T20:49:15.076Z,17.30
2022-10-13T20:51:44.464Z,19.52
2022-10-13T20:54:15.221Z,18.90
2022-10-13T20:56:45.098Z,17.30
2022-10-13T20:59:15.607Z,17.65
2022-10-13T21:01:44.572Z,17.13
2022-10-13T21:04:13.477Z,18.58
2022-10-13T21:06:42.571Z,17.50
2022-10-13T21:09:13.403Z,17.75
2022-10-13T21:11:44.677Z,18.27
2022-10-13T21:14:12.893Z,18.33
2022-10-13T21:16:41.210Z,17.95
2022-10-13T21:19:12.706Z,18.77
2022-10-13T21:21:41.028Z,19.27
2022-10-13T21:24:11.181Z,17.75
2022-10-13T21:26:42.423Z,18.17
2022-10-13T21:29:16.400Z,17.25
2022-10-13T21:31:44.767Z,17.73
2022-10-13T21:34:13.987Z,18.30
2022-10-13T21:36:44.418Z,18.42
2022-10-13T21:39:15.251Z,19.85
2022-10-13T21:41:43.661Z,19.50
2022-10-13T21:44:15.534Z,19.20
2022-10-13T21:46:44.089Z,19.60
2022-10-13T21:49:12.714Z,19.65
2022-10-13T21:51:41.764Z,19.15
2022-10-13T21:54:12.311Z,20.00
2022-10-13T21:56:41.954Z,18.83
2022-10-13T21:59:13.202Z,19.08
2022-10-13T22:01:43.175Z,18.45
2022-10-13T22:04:14.694Z,19.42
2022-10-13T22:06:43.555Z,19.17
2022-10-13T22:09:12.121Z,19.20
2022-10-13T22:11:41.595Z,20.60
2022-10-13T22:16:45.393Z,17.42
2022-10-13T22:19:14.663Z,19.75
2022-10-13T22:21:45.985Z,19.15
2022-10-13T22:24:16.324Z,20.73
2022-10-13T22:26:46.060Z,19.60
2022-10-13T22:29:17.365Z,20.27
2022-10-13T22:31:48.155Z,17.38
2022-10-13T22:34:17.600Z,19.08
2022-10-13T22:36:45.744Z,20.13
2022-10-13T22:39:14.932Z,17.75
2022-10-13T22:41:43.543Z,19.48
2022-10-13T22:44:12.004Z,20.95
2022-10-13T22:46:41.236Z,19.70
2022-10-13T22:49:15.935Z,20.10
2022-10-13T22:51:44.050Z,20.50
2022-10-13T22:54:12.636Z,19.90
2022-10-13T22:56:42.780Z,17.98
2022-10-13T22:59:13.727Z,18.67
2022-10-13T23:01:41.918Z,20.58
2022-10-13T23:04:10.679Z,21.85
2022-10-13T23:06:40.377Z,21.45
2022-10-13T23:09:13.283Z,21.27
2022-10-13T23:11:41.534Z,20.98
2022-10-13T23:14:12.111Z,20.15
2022-10-13T23:16:40.630Z,22.30
2022-10-13T23:19:08.750Z,21.30
2022-10-13T23:21:39.806Z,21.33
2022-10-13T23:24:09.191Z,20.60
2022-10-13T23:26:37.779Z,17.48
2022-10-13T23:29:06.407Z,22.17
2022-10-13T23:31:34.661Z,23.25
2022-10-13T23:34:03.052Z,20.30
2022-10-13T23:36:33.867Z,25.30
2022-10-13T23:39:06.414Z,494.05
2022-10-13T23:41:34.806Z,495.70
2022-10-13T23:44:02.963Z,496.35
2022-10-13T23:46:31.623Z,432.13
2022-10-13T23:48:59.722Z,392.20
2022-10-13T23:51:28.530Z,184.85
2022-10-13T23:53:57.223Z,176.90
2022-10-13T23:56:27.548Z,294.88
2022-10-13T23:58:55.718Z,167.32
